Time;durP1;ratioP1;P1;durP2;ratioP2;P2;SDS_P1;SDS_P2;PMS_P1;PMS_P2;Temp;Humidity;BMP_temperature;BMP_pressure;BME280_temperature;BME280_humidity;BME280_pressure;Samples;Min_cycle;Max_cycle;Signal;HPM_P1;HPM_P2
2022/02/17 00:00:13;;;;;;;53.05;32.53;;;;;;;3.26;100.00;100453.41;5031986;28;20032;-74
2022/02/17 00:02:43;;;;;;;53.88;32.35;;;;;;;3.30;100.00;100455.41;5031890;28;20033;-76
2022/02/17 00:08:31;;;;;;;54.58;32.45;;;;;;;3.24;100.00;100430.34;5133130;22;20154;-75
2022/02/17 00:10:56;;;;;;;55.30;32.17;;;;;;;3.26;100.00;100447.44;4991893;28;20034;-71
2022/02/17 00:13:22;;;;;;;52.22;30.55;;;;;;;3.31;100.00;100459.69;4992735;28;20461;-71
2022/02/17 00:15:47;;;;;;;53.00;31.38;;;;;;;3.11;100.00;100460.06;4992663;28;20031;-74
2022/02/17 00:18:21;;;;;;;53.63;32.22;;;;;;;3.14;100.00;100456.06;4992412;28;20081;-71
2022/02/17 00:20:47;;;;;;;49.60;31.95;;;;;;;3.08;100.00;100464.16;4992570;28;20380;-73
2022/02/17 00:23:13;;;;;;;57.60;33.78;;;;;;;3.01;100.00;100441.56;4992477;28;20468;-71
2022/02/17 00:25:38;;;;;;;58.08;31.95;;;;;;;3.16;100.00;100457.00;4992574;28;20033;-71
2022/02/17 00:28:04;;;;;;;58.63;34.28;;;;;;;3.18;100.00;100454.59;4991818;28;20027;-71
2022/02/17 00:30:29;;;;;;;57.90;33.88;;;;;;;3.22;100.00;100451.44;4992149;28;20057;-71
2022/02/17 00:32:55;;;;;;;55.95;33.78;;;;;;;3.25;100.00;100451.63;4992251;28;20089;-71
2022/02/17 00:35:20;;;;;;;59.60;36.67;;;;;;;3.29;100.00;100451.06;4992311;28;20088;-74
2022/02/17 00:37:46;;;;;;;56.97;34.20;;;;;;;3.34;100.00;100453.91;4992360;28;20473;-72
2022/02/17 00:40:11;;;;;;;48.47;31.40;;;;;;;3.20;100.00;100450.44;4991915;28;20030;-74
2022/02/17 00:42:37;;;;;;;54.13;31.52;;;;;;;3.11;100.00;100432.00;4991753;28;20062;-71
2022/02/17 00:45:03;;;;;;;53.13;32.13;;;;;;;3.22;100.00;100451.44;4974685;28;20037;-74
2022/02/17 00:47:28;;;;;;;57.15;33.65;;;;;;;3.19;100.00;100446.13;4991777;28;20038;-72
2022/02/17 00:49:54;;;;;;;54.22;32.72;;;;;;;3.24;100.00;100439.69;4992092;28;20034;-73
2022/02/17 00:52:19;;;;;;;53.25;31.60;;;;;;;3.14;100.00;100429.63;4991958;28;20037;-72
2022/02/17 00:54:45;;;;;;;53.30;32.95;;;;;;;3.02;100.00;100415.28;4992151;28;20045;-70
2022/02/17 00:57:10;;;;;;;53.33;31.55;;;;;;;3.18;100.00;100436.72;4992054;28;20030;-72
2022/02/17 00:59:36;;;;;;;50.97;31.90;;;;;;;3.25;100.00;100436.31;4992138;28;20030;-71
2022/02/17 01:02:01;;;;;;;50.90;31.73;;;;;;;3.12;100.00;100415.91;4991694;28;20043;-71
2022/02/17 01:04:27;;;;;;;60.88;34.47;;;;;;;3.15;100.00;100413.56;4991783;28;20038;-70
2022/02/17 01:06:52;;;;;;;51.67;33.45;;;;;;;3.29;100.00;100427.22;4991781;28;20034;-71
2022/02/17 01:09:18;;;;;;;55.22;34.65;;;;;;;3.19;100.00;100402.75;4991759;28;20050;-72
2022/02/17 01:11:43;;;;;;;61.20;34.95;;;;;;;3.36;100.00;100416.63;4991674;28;20129;-71
2022/02/17 01:14:10;;;;;;;49.72;32.17;;;;;;;3.35;100.00;100420.84;4991789;28;20031;-73
2022/02/17 01:16:36;;;;;;;54.53;35.35;;;;;;;3.21;100.00;100414.81;4991564;28;20038;-71
2022/02/17 01:19:02;;;;;;;60.95;34.17;;;;;;;3.23;100.00;100418.38;4991655;28;20026;-71
2022/02/17 01:21:27;;;;;;;55.03;35.45;;;;;;;3.05;100.00;100374.72;4991611;28;20058;-71
2022/02/17 01:23:53;;;;;;;54.95;32.67;;;;;;;3.25;100.00;100398.06;4986768;28;20058;-71
2022/02/17 01:29:29;;;;;;;54.95;33.63;;;;;;;3.28;100.00;100398.28;5158581;23;20511;-71
2022/02/17 01:31:55;;;;;;;56.33;33.40;;;;;;;3.35;100.00;100397.91;5050758;28;20086;-71
2022/02/17 01:34:20;;;;;;;59.83;34.25;;;;;;;3.25;100.00;100400.59;5050492;28;20036;-70
2022/02/17 01:36:46;;;;;;;54.83;32.78;;;;;;;3.08;100.00;100408.03;5050449;28;20052;-71
2022/02/17 01:39:11;;;;;;;54.45;32.03;;;;;;;2.94;100.00;100405.38;5050443;28;20414;-71
2022/02/17 01:41:36;;;;;;;52.47;32.00;;;;;;;2.88;100.00;100403.31;5050453;28;20029;-74
2022/02/17 01:44:03;;;;;;;55.20;33.65;;;;;;;2.94;100.00;100402.81;5050526;28;20029;-70
2022/02/17 01:46:38;;;;;;;54.20;33.72;;;;;;;2.97;100.00;100408.13;5050307;28;20029;-70
2022/02/17 01:49:05;;;;;;;56.50;34.13;;;;;;;2.96;100.00;100391.94;5050348;28;20033;-72
2022/02/17 01:51:30;;;;;;;56.27;33.53;;;;;;;3.02;100.00;100394.91;5050264;28;20104;-71
2022/02/17 01:53:58;;;;;;;57.30;34.63;;;;;;;3.00;100.00;100383.69;5050364;28;20457;-71
2022/02/17 01:56:23;;;;;;;60.22;35.45;;;;;;;2.78;100.00;100358.47;5015155;28;20033;-71
2022/02/17 01:58:50;;;;;;;75.35;38.40;;;;;;;2.67;100.00;100388.34;5050439;28;20579;-71
2022/02/17 02:01:16;;;;;;;80.43;38.67;;;;;;;2.67;100.00;100390.88;5050266;28;20511;-71
2022/02/17 02:03:42;;;;;;;73.33;37.27;;;;;;;2.67;100.00;100372.16;5050306;28;20055;-74
2022/02/17 02:06:07;;;;;;;94.78;42.03;;;;;;;2.82;100.00;100396.13;5050146;28;20025;-73
2022/02/17 02:08:33;;;;;;;92.05;40.67;;;;;;;2.71;100.00;100395.41;5050211;28;20036;-73
2022/02/17 02:10:58;;;;;;;141.32;38.65;;;;;;;2.81;100.00;100394.34;5050292;28;20029;-74
2022/02/17 02:13:24;;;;;;;83.18;37.38;;;;;;;2.86;100.00;100387.88;5050252;28;20071;-73
2022/02/17 02:15:52;;;;;;;94.65;35.00;;;;;;;2.51;100.00;100330.34;5050213;28;20099;-70
2022/02/17 02:18:19;;;;;;;121.05;33.90;;;;;;;2.84;100.00;100381.81;5050149;28;20021;-74
2022/02/17 02:20:55;;;;;;;100.72;34.70;;;;;;;2.83;100.00;100380.06;5032043;28;20025;-71
2022/02/17 02:23:21;;;;;;;104.53;33.13;;;;;;;2.57;100.00;100365.56;5032305;28;20028;-72
2022/02/17 02:25:48;;;;;;;143.32;34.15;;;;;;;2.49;100.00;100370.13;5050352;28;20021;-71
2022/02/17 02:28:25;;;;;;;132.60;32.60;;;;;;;2.31;100.00;100372.31;5050505;28;20407;-71
2022/02/17 02:30:51;;;;;;;140.50;35.77;;;;;;;2.17;100.00;100366.28;4998483;28;20040;-71
2022/02/17 02:33:18;;;;;;;79.27;33.33;;;;;;;2.05;100.00;100347.63;5050233;28;20032;-71
2022/02/17 02:35:43;;;;;;;70.20;31.57;;;;;;;1.68;100.00;100320.47;5053052;28;20483;-71
2022/02/17 02:38:10;;;;;;;160.47;36.40;;;;;;;1.77;100.00;100364.41;5053406;28;20045;-71
2022/02/17 02:40:36;;;;;;;127.40;36.47;;;;;;;1.61;100.00;100361.56;5053797;28;20104;-74
2022/02/17 02:43:03;;;;;;;94.90;34.80;;;;;;;1.48;100.00;100353.81;5053478;28;20152;-70
2022/02/17 02:45:28;;;;;;;87.77;36.40;;;;;;;1.37;100.00;100331.06;5053324;28;20498;-70
2022/02/17 02:47:55;;;;;;;171.43;37.50;;;;;;;1.66;100.00;100367.84;5053503;28;20029;-71
2022/02/17 02:50:21;;;;;;;86.50;34.87;;;;;;;1.59;100.00;100351.25;5053350;28;20029;-71
2022/02/17 02:52:46;;;;;;;87.10;33.17;;;;;;;1.63;100.00;100365.06;5018981;28;20415;-74
2022/02/17 02:55:12;;;;;;;135.13;34.80;;;;;;;1.61;100.00;100371.72;5053552;28;20029;-73
2022/02/17 02:57:37;;;;;;;150.73;36.60;;;;;;;1.64;100.00;100353.25;5053157;28;20453;-71
2022/02/17 03:00:05;;;;;;;109.70;33.90;;;;;;;1.65;100.00;100347.38;5053017;28;20056;-73
2022/02/17 03:02:30;;;;;;;131.53;37.13;;;;;;;1.71;100.00;100351.22;5053131;28;20043;-70
2022/02/17 03:04:55;;;;;;;117.07;36.10;;;;;;;1.78;100.00;100378.91;5053039;28;20410;-73
2022/02/17 03:07:21;;;;;;;77.33;33.97;;;;;;;1.83;100.00;100375.78;5053105;28;20033;-71
2022/02/17 03:09:47;;;;;;;92.13;33.90;;;;;;;1.76;100.00;100352.44;5052898;28;20036;-71
2022/02/17 03:12:12;;;;;;;77.37;32.33;;;;;;;1.86;100.00;100371.78;5052892;28;20037;-71
2022/02/17 03:14:40;;;;;;;88.67;32.47;;;;;;;1.74;100.00;100370.94;5052706;28;20025;-73
2022/02/17 03:17:05;;;;;;;82.53;30.63;;;;;;;1.54;100.00;100379.69;5052750;28;20120;-74
2022/02/17 03:19:31;;;;;;;74.57;32.93;;;;;;;1.29;100.00;100378.78;5053009;28;20494;-73
2022/02/17 03:21:56;;;;;;;84.33;33.83;;;;;;;1.04;100.00;100371.03;5052865;28;20052;-74
2022/02/17 03:24:22;;;;;;;83.70;35.17;;;;;;;1.18;100.00;100383.88;5050493;28;20144;-73
2022/02/17 03:26:47;;;;;;;113.73;34.77;;;;;;;1.31;100.00;100389.09;5052100;28;20043;-75
2022/02/17 03:29:13;;;;;;;133.20;34.83;;;;;;;1.36;100.00;100386.88;5051949;28;20056;-73
2022/02/17 03:31:38;;;;;;;86.73;32.20;;;;;;;1.38;100.00;100390.41;5052361;28;20095;-71
2022/02/17 03:34:03;;;;;;;84.10;34.30;;;;;;;1.36;100.00;100371.63;5052346;28;20090;-76
2022/02/17 03:36:29;;;;;;;98.50;33.77;;;;;;;1.56;100.00;100383.25;5052108;28;20029;-74
2022/02/17 03:38:56;;;;;;;69.13;32.87;;;;;;;1.70;100.00;100371.50;5016801;28;20069;-77
2022/02/17 03:41:21;;;;;;;91.10;33.77;;;;;;;1.39;100.00;100319.31;5052348;28;20024;-70
2022/02/17 03:43:47;;;;;;;92.07;34.10;;;;;;;1.78;100.00;100368.72;5051922;28;20036;-71
2022/02/17 03:46:12;;;;;;;96.43;32.80;;;;;;;1.72;100.00;100368.28;5051778;28;20029;-74
2022/02/17 03:48:38;;;;;;;65.57;32.03;;;;;;;1.70;100.00;100358.78;5052078;28;20036;-71
2022/02/17 03:51:03;;;;;;;69.87;32.73;;;;;;;1.54;100.00;100313.53;5034100;28;20044;-74
2022/02/17 03:53:28;;;;;;;51.07;29.63;;;;;;;1.80;100.00;100357.75;5051818;28;20067;-70
2022/02/17 03:55:54;;;;;;;59.60;29.27;;;;;;;1.86;100.00;100373.47;5051917;28;20498;-74
2022/02/17 04:01:04;;;;;;;62.37;30.50;;;;;;;1.41;100.00;100380.47;5051563;28;20035;-71
2022/02/17 04:03:29;;;;;;;78.47;31.30;;;;;;;1.05;100.00;100392.28;5051704;28;20415;-73
2022/02/17 04:05:56;;;;;;;93.57;32.17;;;;;;;1.15;100.00;100379.47;5051496;28;20037;-74
2022/02/17 04:08:22;;;;;;;54.97;31.83;;;;;;;1.14;100.00;100354.81;5016555;28;20537;-75
2022/02/17 04:10:51;;;;;;;60.13;31.57;;;;;;;1.02;100.00;100305.63;5051386;28;20099;-70
2022/02/17 04:13:16;;;;;;;71.13;30.40;;;;;;;1.43;100.00;100359.47;5051335;28;20029;-73
2022/02/17 04:15:42;;;;;;;59.03;32.47;;;;;;;1.21;100.00;100290.00;5051478;28;20548;-73
2022/02/17 04:18:07;;;;;;;57.63;33.07;;;;;;;1.55;100.00;100343.31;5051410;28;20032;-73
2022/02/17 04:20:32;;;;;;;55.43;29.10;;;;;;;1.24;100.00;100349.59;5051291;28;20114;-70
2022/02/17 04:22:58;;;;;;;67.40;31.47;;;;;;;1.00;100.00;100360.53;5051072;28;20071;-70
2022/02/17 04:25:24;;;;;;;60.83;32.40;;;;;;;0.60;100.00;100310.22;5007363;28;20045;-73
2022/02/17 04:27:49;;;;;;;65.40;32.53;;;;;;;0.84;100.00;100343.28;5048461;28;20052;-73
2022/02/17 04:30:15;;;;;;;74.47;32.40;;;;;;;0.69;100.00;100346.47;5051226;28;20098;-72
2022/02/17 04:32:40;;;;;;;93.30;34.93;;;;;;;0.76;100.00;100346.16;5051019;28;20449;-73
2022/02/17 04:35:06;;;;;;;56.37;33.07;;;;;;;0.72;100.00;100353.44;5051288;28;20058;-70
2022/02/17 04:37:31;;;;;;;60.10;34.57;;;;;;;0.66;100.00;100328.47;5051220;28;20036;-70
2022/02/17 04:40:00;;;;;;;56.90;33.30;;;;;;;0.58;100.00;100340.56;5050899;28;20102;-73
2022/02/17 04:42:26;;;;;;;60.20;34.90;;;;;;;0.32;100.00;100298.91;5050696;28;20454;-73
2022/02/17 04:44:52;;;;;;;65.53;33.87;;;;;;;0.62;100.00;100347.69;5051036;28;20040;-74
2022/02/17 04:47:18;;;;;;;61.67;32.70;;;;;;;0.65;100.00;100339.41;5050964;28;20029;-72
2022/02/17 04:49:44;;;;;;;66.73;36.57;;;;;;;0.62;100.00;100331.53;5047209;28;20423;-73
2022/02/17 04:52:10;;;;;;;65.17;34.63;;;;;;;0.62;100.00;100340.06;5030699;28;20034;-72
2022/02/17 04:54:35;;;;;;;58.93;32.87;;;;;;;0.51;100.00;100340.88;5030697;28;20033;-73
2022/02/17 04:57:06;;;;;;;63.97;34.43;;;;;;;0.57;100.00;100331.19;5030517;28;20464;-73
2022/02/17 04:59:33;;;;;;;73.40;37.47;;;;;;;0.67;100.00;100347.13;5031040;28;20091;-70
2022/02/17 05:01:58;;;;;;;71.70;34.87;;;;;;;0.67;100.00;100332.75;5030783;28;20041;-70
2022/02/17 05:04:24;;;;;;;84.27;34.60;;;;;;;0.76;100.00;100345.25;5030728;28;20034;-73
2022/02/17 05:06:49;;;;;;;81.40;31.97;;;;;;;0.77;100.00;100337.75;5030886;28;20454;-70
2022/02/17 05:09:14;;;;;;;64.33;34.57;;;;;;;0.62;100.00;100306.13;5031145;28;20078;-73
2022/02/17 05:11:40;;;;;;;70.53;31.63;;;;;;;0.61;100.00;100332.28;5030741;28;20389;-74
2022/02/17 05:14:06;;;;;;;62.57;33.30;;;;;;;0.60;100.00;100339.03;5030853;28;20096;-70
2022/02/17 05:16:32;;;;;;;81.80;34.87;;;;;;;0.50;100.00;100328.06;5030462;28;20040;-73
2022/02/17 05:18:58;;;;;;;71.87;32.27;;;;;;;0.53;100.00;100333.41;5030817;28;20025;-75
2022/02/17 05:21:24;;;;;;;108.53;38.07;;;;;;;0.72;100.00;100346.66;5029978;28;20040;-73
2022/02/17 05:23:49;;;;;;;126.87;36.00;;;;;;;0.56;100.00;100300.59;5030024;28;20091;-73
2022/02/17 05:26:15;;;;;;;116.13;35.20;;;;;;;0.53;100.00;100296.16;5010474;28;20029;-74
2022/02/17 05:28:40;;;;;;;113.93;36.27;;;;;;;0.74;100.00;100326.47;5041505;28;20515;-74
2022/02/17 05:31:06;;;;;;;63.23;33.67;;;;;;;0.92;100.00;100334.56;5026375;28;20044;-73
2022/02/17 05:33:32;;;;;;;74.47;32.90;;;;;;;1.00;100.00;100338.56;5028581;28;20037;-70
2022/02/17 05:35:57;;;;;;;87.13;37.63;;;;;;;1.10;100.00;100332.50;5032087;28;20515;-73
2022/02/17 05:38:23;;;;;;;122.27;37.67;;;;;;;1.01;100.00;100302.19;5048854;28;20063;-71
2022/02/17 05:40:48;;;;;;;128.63;35.60;;;;;;;1.12;100.00;100308.03;5030690;28;20092;-73
2022/02/17 05:43:14;;;;;;;120.53;36.27;;;;;;;1.27;100.00;100324.41;5050300;28;20051;-72
2022/02/17 05:45:40;;;;;;;122.10;39.80;;;;;;;1.18;100.00;100305.06;5044990;28;20037;-70
2022/02/17 05:48:05;;;;;;;109.33;43.17;;;;;;;1.33;100.00;100305.28;5037738;28;20418;-71
2022/02/17 05:50:32;;;;;;;132.13;46.87;;;;;;;1.10;100.00;100266.38;5044947;28;20032;-73
2022/02/17 05:52:58;;;;;;;109.77;49.30;;;;;;;1.41;100.00;100319.44;5049899;28;20029;-70
2022/02/17 05:55:24;;;;;;;90.57;50.53;;;;;;;1.37;100.00;100297.97;5050304;28;20040;-72
2022/02/17 05:57:50;;;;;;;81.47;41.40;;;;;;;1.50;100.00;100306.47;5050165;28;20104;-73
2022/02/17 06:00:16;;;;;;;70.70;39.77;;;;;;;1.57;100.00;100312.09;5050038;28;20498;-73
2022/02/17 06:02:42;;;;;;;67.47;38.07;;;;;;;1.47;100.00;100316.41;5050121;28;20533;-74
2022/02/17 06:05:09;;;;;;;64.57;36.53;;;;;;;0.81;100.00;100262.63;5049935;28;20048;-73
2022/02/17 06:07:35;;;;;;;72.57;37.97;;;;;;;1.15;100.00;100337.88;5044236;28;20025;-73
2022/02/17 06:10:00;;;;;;;70.83;40.13;;;;;;;1.02;100.00;100324.28;5032283;28;20040;-70
2022/02/17 06:12:26;;;;;;;67.97;40.03;;;;;;;1.15;100.00;100321.00;5034442;28;20086;-73
2022/02/17 06:14:51;;;;;;;80.87;42.73;;;;;;;1.22;100.00;100301.97;5049630;28;20028;-76
2022/02/17 06:17:17;;;;;;;92.17;47.03;;;;;;;1.25;100.00;100282.72;5016182;28;20053;-71
2022/02/17 06:19:43;;;;;;;138.70;66.03;;;;;;;1.51;100.00;100305.69;5033416;28;20080;-74
2022/02/17 06:22:09;;;;;;;248.53;141.37;;;;;;;1.59;100.00;100302.03;5039866;28;20025;-71
2022/02/17 06:24:34;;;;;;;178.63;99.63;;;;;;;1.69;100.00;100298.47;5043754;28;20048;-73
2022/02/17 06:27:00;;;;;;;215.50;85.77;;;;;;;1.78;100.00;100306.72;5043519;28;20048;-73
2022/02/17 06:29:26;;;;;;;140.27;59.33;;;;;;;1.58;100.00;100269.72;5025818;28;20045;-73
2022/02/17 06:31:52;;;;;;;175.57;61.70;;;;;;;1.64;100.00;100310.00;5029276;28;20029;-72
2022/02/17 06:34:18;;;;;;;148.50;57.63;;;;;;;1.41;100.00;100279.59;5024136;28;20029;-73
2022/02/17 06:36:44;;;;;;;162.77;63.50;;;;;;;1.54;100.00;100300.81;5021841;28;20032;-69
2022/02/17 06:39:10;;;;;;;214.07;79.30;;;;;;;1.47;100.00;100298.63;5022220;28;20095;-73
2022/02/17 06:41:36;;;;;;;188.83;67.37;;;;;;;1.14;100.00;100237.84;5023523;28;20113;-70
2022/02/17 06:44:01;;;;;;;187.40;63.70;;;;;;;1.48;100.00;100265.66;5021201;28;20460;-70
2022/02/17 06:46:27;;;;;;;201.60;67.50;;;;;;;1.70;100.00;100279.88;5013439;28;20041;-73
2022/02/17 06:48:52;;;;;;;175.90;65.77;;;;;;;1.78;100.00;100260.91;5013231;28;20033;-72
2022/02/17 06:51:18;;;;;;;189.67;66.17;;;;;;;1.40;100.00;100186.25;5028891;28;20036;-72
2022/02/17 06:53:43;;;;;;;196.10;66.63;;;;;;;1.73;100.00;100217.34;5032958;28;20033;-71
2022/02/17 06:56:12;;;;;;;173.77;69.07;;;;;;;2.08;100.00;100257.03;5033256;28;20030;-69
2022/02/17 06:58:37;;;;;;;177.47;70.00;;;;;;;2.17;100.00;100251.69;5033537;28;20056;-69
2022/02/17 07:01:03;;;;;;;168.83;69.97;;;;;;;2.32;100.00;100251.81;5033397;28;20268;-72
2022/02/17 07:03:28;;;;;;;183.07;71.50;;;;;;;2.43;100.00;100255.09;5033405;28;20025;-71
2022/02/17 07:05:54;;;;;;;164.70;63.70;;;;;;;2.38;100.00;100236.94;5033095;28;20038;-69
2022/02/17 07:08:19;;;;;;;187.83;65.17;;;;;;;2.38;100.00;100234.38;5033455;28;20033;-74
2022/02/17 07:10:54;;;;;;;164.30;63.10;;;;;;;2.53;100.00;100248.91;5033303;28;20043;-71
2022/02/17 07:13:20;;;;;;;174.50;62.83;;;;;;;2.56;100.00;100246.56;5032963;28;20072;-71
2022/02/17 07:15:48;;;;;;;137.43;53.07;;;;;;;2.64;100.00;100258.16;5033008;28;20152;-71
2022/02/17 07:18:15;;;;;;;152.47;57.37;;;;;;;2.77;100.00;100262.38;5032997;28;20048;-71
2022/02/17 07:20:43;;;;;;;125.97;48.13;;;;;;;2.81;100.00;100271.09;5032469;28;20403;-71
2022/02/17 07:23:11;;;;;;;117.53;47.47;;;;;;;2.84;100.00;100276.38;5033074;28;20040;-71
2022/02/17 07:25:36;;;;;;;91.03;38.37;;;;;;;2.84;100.00;100281.47;5032982;28;20098;-72
2022/02/17 07:28:02;;;;;;;84.57;33.07;;;;;;;2.83;100.00;100279.72;5039167;28;20049;-69
2022/02/17 07:30:27;;;;;;;90.70;36.83;;;;;;;2.80;100.00;100282.09;5052752;28;20033;-71
2022/02/17 07:32:53;;;;;;;91.60;35.57;;;;;;;2.93;100.00;100287.19;5052651;28;20029;-73
2022/02/17 07:35:18;;;;;;;105.53;43.13;;;;;;;2.72;100.00;100236.56;5052449;28;20097;-72
2022/02/17 07:37:44;;;;;;;115.50;49.77;;;;;;;2.65;100.00;100241.19;5052763;28;20411;-71
2022/02/17 07:40:15;;;;;;;114.13;53.20;;;;;;;2.93;100.00;100269.34;5052464;28;20163;-71
2022/02/17 07:42:43;;;;;;;118.80;54.03;;;;;;;3.05;100.00;100265.03;5018505;28;20072;-71
2022/02/17 07:45:09;;;;;;;129.30;60.50;;;;;;;3.16;100.00;100250.38;5052418;28;20492;-69
2022/02/17 07:47:36;;;;;;;124.07;57.88;;;;;;;3.32;100.00;100248.81;5052218;28;20525;-71
2022/02/17 07:50:03;;;;;;;126.85;59.47;;;;;;;3.40;100.00;100248.50;5052753;28;20055;-72
2022/02/17 07:52:29;;;;;;;114.40;57.00;;;;;;;3.58;100.00;100252.06;5052350;28;20094;-76
2022/02/17 07:54:54;;;;;;;112.13;57.55;;;;;;;3.76;100.00;100257.44;5052253;28;20037;-69
2022/02/17 07:57:19;;;;;;;103.82;54.38;;;;;;;3.88;100.00;100266.72;5052298;28;20028;-75
2022/02/17 07:59:45;;;;;;;107.18;53.45;;;;;;;4.01;100.00;100268.34;5052232;28;20045;-76
2022/02/17 08:02:12;;;;;;;97.47;53.17;;;;;;;4.17;100.00;100269.25;5016867;28;20051;-75
2022/02/17 08:04:37;;;;;;;95.97;51.60;;;;;;;3.82;100.00;100179.53;5051998;28;20111;-71
2022/02/17 08:07:04;;;;;;;94.05;54.10;;;;;;;4.30;100.00;100243.63;5052196;28;20405;-72
2022/02/17 08:09:29;;;;;;;96.03;54.58;;;;;;;4.46;100.00;100249.63;5051949;28;20118;-72
2022/02/17 08:11:55;;;;;;;105.30;60.20;;;;;;;4.51;100.00;100251.66;5051912;28;20111;-72
2022/02/17 08:14:21;;;;;;;90.82;53.80;;;;;;;4.64;100.00;100249.81;5051935;28;20032;-73
2022/02/17 08:16:46;;;;;;;90.95;51.10;;;;;;;4.62;100.00;100238.63;5051771;28;20086;-72
2022/02/17 08:19:12;;;;;;;105.93;56.60;;;;;;;4.79;100.00;100248.13;5051708;28;20041;-71
2022/02/17 08:21:37;;;;;;;90.93;52.17;;;;;;;4.97;100.00;100245.72;5051715;28;20033;-75
2022/02/17 08:24:03;;;;;;;92.30;53.80;;;;;;;5.01;100.00;100234.00;5051778;28;20037;-71
2022/02/17 08:26:29;;;;;;;92.05;54.33;;;;;;;5.18;100.00;100242.56;5051732;28;20025;-71
2022/02/17 08:28:57;;;;;;;93.05;55.85;;;;;;;5.00;100.00;100212.63;5051427;28;20061;-69
2022/02/17 08:31:27;;;;;;;90.20;50.13;;;;;;;4.98;100.00;100188.63;5051022;28;20036;-71
2022/02/17 08:33:53;;;;;;;93.70;55.03;;;;;;;5.46;100.00;100257.78;5051383;28;20033;-75
2022/02/17 08:36:19;;;;;;;95.97;55.92;;;;;;;5.52;100.00;100247.00;5051587;28;20033;-72
2022/02/17 08:38:45;;;;;;;95.22;56.22;;;;;;;5.45;100.00;100232.97;5051594;28;20033;-72
2022/02/17 08:41:11;;;;;;;94.15;55.67;;;;;;;5.66;100.00;100243.47;5051498;28;20163;-72
2022/02/17 08:43:36;;;;;;;93.60;55.65;;;;;;;5.67;100.00;100235.00;5033522;28;20485;-73
2022/02/17 08:46:03;;;;;;;94.28;56.00;;;;;;;5.63;100.00;100193.75;5051215;28;20108;-73
2022/02/17 08:48:29;;;;;;;90.15;55.47;;;;;;;6.05;100.00;100240.38;5051485;28;20025;-75
2022/02/17 08:50:54;;;;;;;90.07;52.97;;;;;;;6.12;100.00;100237.31;5051144;28;20082;-73
2022/02/17 08:53:20;;;;;;;90.07;52.85;;;;;;;6.12;100.00;100221.09;5051181;28;20025;-74
2022/02/17 08:55:45;;;;;;;90.65;54.53;;;;;;;6.01;100.00;100183.75;5051307;28;20025;-73
2022/02/17 08:58:11;;;;;;;85.45;48.45;;;;;;;6.26;100.00;100225.19;5051153;28;20024;-69
2022/02/17 09:00:37;;;;;;;87.10;49.90;;;;;;;5.83;100.00;100208.50;5051252;28;20039;-73
2022/02/17 09:03:06;;;;;;;86.18;54.60;;;;;;;6.18;100.00;100218.81;5051273;28;20403;-72
2022/02/17 09:05:32;;;;;;;81.10;46.90;;;;;;;6.17;100.00;100223.84;5051121;28;20121;-72
2022/02/17 09:07:58;;;;;;;97.20;54.45;;;;;;;5.86;100.00;100177.03;5051081;28;20320;-74
2022/02/17 09:10:24;;;;;;;86.70;54.17;;;;;;;6.29;100.00;100219.34;5050979;28;20029;-69
2022/02/17 09:12:50;;;;;;;82.70;46.75;;;;;;;6.25;100.00;100184.13;5050762;28;20037;-72
2022/02/17 09:15:17;;;;;;;93.38;53.33;;;;;;;6.25;100.00;100190.09;5050782;28;20029;-73
2022/02/17 09:17:45;;;;;;;93.10;55.22;;;;;;;6.45;100.00;100175.69;5050764;28;20414;-74
2022/02/17 09:20:11;;;;;;;85.95;53.83;;;;;;;6.80;100.00;100193.59;5050930;28;20100;-72
2022/02/17 09:22:36;;;;;;;89.40;53.92;;;;;;;6.89;100.00;100206.88;5050658;28;20035;-72
2022/02/17 09:25:03;;;;;;;83.53;50.30;;;;;;;6.90;100.00;100185.56;5050874;28;20070;-72
2022/02/17 09:27:29;;;;;;;88.25;54.50;;;;;;;6.95;100.00;100158.41;5050811;28;20435;-70
2022/02/17 09:29:54;;;;;;;90.13;55.75;;;;;;;7.42;100.00;100204.16;5050596;28;20110;-74
2022/02/17 09:32:20;;;;;;;86.82;53.70;;;;;;;7.40;100.00;100170.72;5050575;28;20487;-73
2022/02/17 09:34:47;;;;;;;78.95;50.17;;;;;;;7.74;100.00;100191.88;5050649;28;20029;-73
2022/02/17 09:37:13;;;;;;;76.90;47.70;;;;;;;7.93;100.00;100191.84;5050618;28;20032;-73
2022/02/17 09:39:38;;;;;;;78.53;48.20;;;;;;;7.86;100.00;100177.00;5050750;28;20025;-69
2022/02/17 09:42:06;;;;;;;85.07;52.55;;;;;;;7.83;100.00;100166.56;5050655;28;20029;-72
2022/02/17 09:44:32;;;;;;;73.55;44.65;;;;;;;8.15;100.00;100177.34;5053813;28;20079;-72
2022/02/17 09:46:57;;;;;;;80.60;48.25;;;;;;;8.30;100.00;100155.63;5054875;28;20453;-73
2022/02/17 09:49:23;;;;;;;76.55;50.58;;;;;;;8.46;100.00;100157.16;5054766;28;20025;-72
2022/02/17 09:51:50;;;;;;;76.88;49.78;;;;;;;8.72;100.00;100156.53;5054650;28;20025;-73
2022/02/17 09:54:17;;;;;;;70.72;46.88;;;;;;;8.61;100.00;100097.72;5054600;28;20120;-72
2022/02/17 09:56:43;;;;;;;67.00;42.92;;;;;;;8.98;100.00;100123.19;5054327;28;20417;-73
2022/02/17 09:59:09;;;;;;;69.60;45.35;;;;;;;9.09;100.00;100123.59;5054478;28;20025;-72
2022/02/17 10:01:35;;;;;;;68.72;45.42;;;;;;;9.16;100.00;100116.94;5054568;28;20021;-72
2022/02/17 10:04:12;;;;;;;65.55;39.92;;;;;;;9.15;100.00;100110.94;5054504;28;20039;-69
2022/02/17 10:06:43;;;;;;;71.53;46.97;;;;;;;9.29;100.00;100108.88;5054420;28;20094;-74
2022/02/17 10:09:09;;;;;;;73.22;47.30;;;;;;;9.52;100.00;100109.69;5054293;28;20017;-72
2022/02/17 10:11:34;;;;;;;72.05;48.35;;;;;;;9.58;100.00;100098.72;5018868;28;20048;-71
2022/02/17 10:14:02;;;;;;;72.72;47.45;;;;;;;9.57;100.00;100057.44;5054322;28;20087;-73
2022/02/17 10:16:28;;;;;;;65.50;43.67;;;;;;;9.86;100.00;100079.91;5054281;28;20191;-70
2022/02/17 10:18:53;;;;;;;69.65;46.60;;;;;;;9.74;100.00;100051.16;5054213;28;20129;-74
2022/02/17 10:21:19;;;;;;;65.68;44.50;;;;;;;10.11;100.00;100075.56;5054085;28;20021;-73
2022/02/17 10:23:50;;;;;;;67.88;45.03;;;;;;;10.18;100.00;100056.88;5053947;28;20029;-73
2022/02/17 10:26:21;;;;;;;66.00;47.33;;;;;;;10.41;100.00;100072.25;5053838;28;20565;-73
2022/02/17 10:28:54;;;;;;;64.82;43.65;;;;;;;10.40;100.00;100065.31;5053686;28;20044;-70
2022/02/17 10:31:31;;;;;;;58.45;38.33;;;;;;;10.03;100.00;100002.22;5053908;28;20430;-70
2022/02/17 10:33:59;;;;;;;89.55;58.53;;;;;;;10.41;100.00;100028.38;5053836;28;20025;-70
2022/02/17 10:36:32;;;;;;;129.45;77.40;;;;;;;10.70;100.00;100035.25;5053713;28;20033;-73
2022/02/17 10:39:12;;;;;;;70.55;43.70;;;;;;;10.67;100.00;100028.28;5053728;28;20721;-76
2022/02/17 10:41:55;;;;;;;124.22;74.32;;;;;;;10.86;100.00;100010.75;5053754;28;20064;-73
2022/02/17 10:44:30;;;;;;;67.50;44.72;;;;;;;10.94;100.00;100002.38;5053380;28;20491;-73
2022/02/17 10:46:56;;;;;;;68.82;45.83;;;;;;;10.99;100.00;99985.31;5041876;28;20036;-73
2022/02/17 10:49:22;;;;;;;70.35;46.67;;;;;;;11.18;100.00;99985.81;5035213;28;20037;-72
2022/02/17 10:51:50;;;;;;;57.83;41.83;;;;;;;11.31;100.00;99981.81;5030289;28;20024;-75
2022/02/17 10:54:21;;;;;;;59.80;42.67;;;;;;;11.17;100.00;99938.41;5031382;28;20049;-76
2022/02/17 10:56:51;;;;;;;55.40;38.80;;;;;;;11.36;100.00;99933.69;5034853;28;20036;-72
2022/02/17 11:02:12;;;;;;;57.85;40.72;;;;;;;11.51;99.96;99909.06;4947028;29;19997;-73
2022/02/17 11:04:38;;;;;;;58.90;39.85;;;;;;;11.83;98.48;99938.28;4940175;28;20148;-75
2022/02/17 11:07:04;;;;;;;57.15;41.47;;;;;;;11.79;98.15;99923.53;4933246;29;20163;-75
2022/02/17 11:09:31;;;;;;;54.97;40.33;;;;;;;12.07;98.27;99926.78;4946800;28;20046;-73
2022/02/17 11:11:57;;;;;;;56.75;37.63;;;;;;;12.04;95.02;99883.59;4942751;29;20114;-75
2022/02/17 11:14:39;;;;;;;50.22;35.92;;;;;;;12.31;94.80;99908.28;4943318;29;20039;-75